createdAt,value
2022-12-31T00:03:00.289Z,2.63
2022-12-31T00:06:05.511Z,1.70
2022-12-31T00:09:11.433Z,1.92
2022-12-31T00:12:16.182Z,4.97
2022-12-31T00:15:21.202Z,6.18
2022-12-31T00:18:28.765Z,2.45
2022-12-31T00:21:35.348Z,3.03
2022-12-31T00:24:40.166Z,3.78
2022-12-31T00:27:45.016Z,4.95
2022-12-31T00:30:49.831Z,1.98
2022-12-31T00:33:57.706Z,1.80
2022-12-31T00:37:02.604Z,2.03
2022-12-31T00:40:08.467Z,2.80
2022-12-31T00:43:13.327Z,3.85
2022-12-31T00:46:19.194Z,3.50
2022-12-31T00:49:26.664Z,5.80
2022-12-31T00:52:31.550Z,3.80
2022-12-31T00:55:36.370Z,2.67
2022-12-31T00:58:42.009Z,6.20
2022-12-31T01:01:46.972Z,3.50
2022-12-31T01:04:54.615Z,2.78
2022-12-31T01:07:59.450Z,4.47
2022-12-31T01:11:17.234Z,4.25
2022-12-31T01:14:23.365Z,2.13
2022-12-31T01:17:28.226Z,2.80
2022-12-31T01:20:39.071Z,1.65
2022-12-31T01:23:44.106Z,4.15
2022-12-31T01:26:49.485Z,0.82
2022-12-31T01:29:54.215Z,3.47
2022-12-31T01:32:59.461Z,1.58
2022-12-31T01:36:12.803Z,1.80
2022-12-31T01:39:17.570Z,1.88
2022-12-31T01:42:22.359Z,2.88
2022-12-31T01:45:27.973Z,1.42
2022-12-31T01:48:32.842Z,3.53
2022-12-31T01:51:42.345Z,2.38
2022-12-31T01:54:50.630Z,1.95
2022-12-31T01:58:00.661Z,1.80
2022-12-31T02:01:06.784Z,0.80
2022-12-31T02:04:15.001Z,2.10
2022-12-31T02:07:22.811Z,1.00
2022-12-31T02:10:27.698Z,1.55
2022-12-31T02:13:32.508Z,0.90
2022-12-31T02:16:48.610Z,0.95
2022-12-31T02:20:28.928Z,0.80
2022-12-31T02:24:09.730Z,1.38
2022-12-31T02:27:27.985Z,1.10
2022-12-31T02:30:36.513Z,2.38
2022-12-31T02:33:47.655Z,0.80
2022-12-31T02:36:56.299Z,1.10
2022-12-31T02:40:01.862Z,1.70
2022-12-31T02:43:07.320Z,1.05
2022-12-31T02:46:24.833Z,1.58
2022-12-31T02:49:36.683Z,3.67
2022-12-31T02:52:53.218Z,2.15
2022-12-31T02:56:06.108Z,2.22
2022-12-31T02:59:29.448Z,1.35
2022-12-31T03:02:40.077Z,1.40
2022-12-31T03:05:47.857Z,1.42
2022-12-31T03:09:05.078Z,1.17
2022-12-31T03:12:25.582Z,1.10
2022-12-31T03:15:32.470Z,1.58
2022-12-31T03:18:52.135Z,2.67
2022-12-31T03:22:09.345Z,3.22
2022-12-31T03:25:28.458Z,1.55
2022-12-31T03:28:33.875Z,2.55
2022-12-31T03:31:42.030Z,2.28
2022-12-31T03:34:49.653Z,1.50
2022-12-31T03:37:55.110Z,1.95
2022-12-31T03:40:59.974Z,2.00
2022-12-31T03:44:04.804Z,1.80
2022-12-31T03:47:09.628Z,2.42
2022-12-31T03:50:19.798Z,1.30
2022-12-31T03:53:25.214Z,5.95
2022-12-31T03:56:30.027Z,1.42
2022-12-31T03:59:34.795Z,1.50
2022-12-31T04:02:40.063Z,1.80
2022-12-31T04:05:47.558Z,1.52
2022-12-31T04:08:52.718Z,1.77
2022-12-31T04:11:57.511Z,3.33
2022-12-31T04:15:02.471Z,3.80
2022-12-31T04:18:07.457Z,2.38
2022-12-31T04:21:14.852Z,3.08
2022-12-31T04:24:19.646Z,1.88
2022-12-31T04:27:24.555Z,4.60
2022-12-31T04:30:29.425Z,3.10
2022-12-31T04:33:34.248Z,1.60
2022-12-31T04:36:41.660Z,1.35
2022-12-31T04:39:46.616Z,2.13
2022-12-31T04:42:51.804Z,1.58
2022-12-31T04:45:56.594Z,2.00
2022-12-31T04:49:02.163Z,0.82
2022-12-31T04:52:09.566Z,1.70
2022-12-31T04:55:14.336Z,1.58
2022-12-31T04:58:19.893Z,1.23
2022-12-31T05:01:25.465Z,1.25
2022-12-31T05:04:30.413Z,1.50
2022-12-31T05:07:37.992Z,2.33
2022-12-31T05:10:45.537Z,1.77
2022-12-31T05:13:50.377Z,3.15
2022-12-31T05:16:55.400Z,1.27
2022-12-31T05:20:00.207Z,1.27
2022-12-31T05:23:07.648Z,2.85
2022-12-31T05:26:12.429Z,3.60
2022-12-31T05:29:17.214Z,1.08
2022-12-31T05:32:22.047Z,1.52
2022-12-31T05:35:27.040Z,3.58
2022-12-31T05:38:34.568Z,1.35
2022-12-31T05:41:39.347Z,1.85
2022-12-31T05:44:44.282Z,2.28
2022-12-31T05:47:49.240Z,0.90
2022-12-31T05:50:54.258Z,2.35
2022-12-31T05:54:01.627Z,3.25
2022-12-31T05:57:07.112Z,1.38
2022-12-31T06:00:13.859Z,5.20
2022-12-31T06:03:18.753Z,0.75
2022-12-31T06:06:23.806Z,1.45
2022-12-31T06:09:31.210Z,0.80
2022-12-31T06:12:36.045Z,1.52
2022-12-31T06:15:42.405Z,1.48
2022-12-31T06:18:47.195Z,0.90
2022-12-31T06:21:51.965Z,2.13
2022-12-31T06:24:59.371Z,1.95
2022-12-31T06:28:04.607Z,2.10
2022-12-31T06:31:11.872Z,1.30
2022-12-31T06:34:16.709Z,1.05
2022-12-31T06:37:21.642Z,1.13
2022-12-31T06:40:29.435Z,1.85
2022-12-31T06:43:34.277Z,1.08
2022-12-31T06:46:39.154Z,2.05
2022-12-31T06:49:44.026Z,1.45
2022-12-31T06:52:51.771Z,2.08
2022-12-31T06:56:00.719Z,1.45
2022-12-31T06:59:07.128Z,2.80
2022-12-31T07:02:27.711Z,3.53
2022-12-31T07:05:44.949Z,2.60
2022-12-31T07:08:54.550Z,1.10
2022-12-31T07:12:09.469Z,3.10
2022-12-31T07:15:19.349Z,1.98
2022-12-31T07:18:31.968Z,1.30
2022-12-31T07:21:39.882Z,1.20
2022-12-31T07:24:45.495Z,2.40
2022-12-31T07:28:08.686Z,2.60
2022-12-31T07:31:21.166Z,1.45
2022-12-31T07:34:32.726Z,1.05
2022-12-31T07:37:45.452Z,1.58
2022-12-31T07:41:09.366Z,2.15
2022-12-31T07:44:32.532Z,1.10
2022-12-31T07:47:38.259Z,3.03
2022-12-31T07:50:43.817Z,1.30
2022-12-31T07:53:48.693Z,1.73
2022-12-31T07:56:54.373Z,2.63
2022-12-31T08:00:10.314Z,1.10
2022-12-31T08:03:28.192Z,1.92
2022-12-31T08:06:39.984Z,1.90
2022-12-31T08:09:50.462Z,1.55
2022-12-31T08:13:03.458Z,1.30
2022-12-31T08:16:13.838Z,1.80
2022-12-31T08:19:27.501Z,1.50
2022-12-31T08:22:45.902Z,1.08
2022-12-31T08:26:05.823Z,1.85
2022-12-31T08:29:25.422Z,2.78
2022-12-31T08:32:39.524Z,3.35
2022-12-31T08:35:57.225Z,2.92
2022-12-31T08:39:09.092Z,1.70
2022-12-31T08:42:28.523Z,2.13
2022-12-31T08:45:38.507Z,1.98
2022-12-31T08:48:48.550Z,1.65
2022-12-31T08:51:57.243Z,1.88
2022-12-31T08:55:02.927Z,2.45
2022-12-31T08:58:24.677Z,3.72
2022-12-31T09:01:35.603Z,2.67
2022-12-31T09:04:54.647Z,2.83
2022-12-31T09:08:11.171Z,2.08
2022-12-31T09:11:23.460Z,2.85
2022-12-31T09:14:49.948Z,1.45
2022-12-31T09:17:55.478Z,1.77
2022-12-31T09:21:03.599Z,1.45
2022-12-31T09:24:09.821Z,1.30
2022-12-31T09:27:27.254Z,1.65
2022-12-31T09:30:42.394Z,1.67
2022-12-31T09:33:53.344Z,13.80
2022-12-31T09:37:06.343Z,1.55
2022-12-31T09:40:32.701Z,1.70
2022-12-31T09:44:06.578Z,3.15
2022-12-31T09:47:34.590Z,2.25
2022-12-31T09:50:57.056Z,2.58
2022-12-31T09:54:21.430Z,3.30
2022-12-31T09:57:41.114Z,1.60
2022-12-31T10:00:53.258Z,1.75
2022-12-31T10:04:18.538Z,1.25
2022-12-31T10:07:35.277Z,1.67
2022-12-31T10:10:49.449Z,2.67
2022-12-31T10:14:10.905Z,2.53
2022-12-31T10:17:33.666Z,1.10
2022-12-31T10:20:59.116Z,2.80
2022-12-31T10:24:27.780Z,2.00
2022-12-31T10:27:48.800Z,2.08
2022-12-31T10:31:07.220Z,3.00
2022-12-31T10:34:18.319Z,3.20
2022-12-31T10:37:27.872Z,2.10
2022-12-31T10:40:50.225Z,2.50
2022-12-31T10:44:20.326Z,1.77
2022-12-31T10:48:12.837Z,4.05
2022-12-31T10:51:49.940Z,3.20
2022-12-31T10:55:24.418Z,3.38
2022-12-31T10:59:02.202Z,1.20
2022-12-31T11:02:32.257Z,3.97
2022-12-31T11:06:03.535Z,1.55
2022-12-31T11:09:46.903Z,3.58
2022-12-31T11:13:14.559Z,1.80
2022-12-31T11:16:36.464Z,3.35
2022-12-31T11:19:58.275Z,1.38
2022-12-31T11:23:15.015Z,2.38
2022-12-31T11:26:29.244Z,2.25
2022-12-31T11:29:51.817Z,2.10
2022-12-31T11:33:15.008Z,2.58
2022-12-31T11:36:35.763Z,1.67
2022-12-31T11:39:50.793Z,2.15
2022-12-31T11:43:00.671Z,3.85
2022-12-31T11:46:29.140Z,3.92
2022-12-31T11:49:54.454Z,3.55
2022-12-31T11:53:14.887Z,2.25
2022-12-31T11:56:22.017Z,2.38
2022-12-31T11:59:26.807Z,1.73
2022-12-31T12:02:35.451Z,2.78
2022-12-31T12:05:42.166Z,3.40
2022-12-31T12:08:49.811Z,3.20
2022-12-31T12:12:01.591Z,1.63
2022-12-31T12:15:10.891Z,3.03
2022-12-31T12:18:27.464Z,3.40
2022-12-31T12:21:33.612Z,5.47
2022-12-31T12:24:41.087Z,1.58
2022-12-31T12:27:45.892Z,2.30
2022-12-31T12:30:57.743Z,2.58
2022-12-31T12:34:02.707Z,2.17
2022-12-31T12:37:10.409Z,3.13
2022-12-31T12:40:33.396Z,5.22
2022-12-31T12:43:40.625Z,2.65
2022-12-31T12:46:49.366Z,6.15
2022-12-31T12:49:57.301Z,4.85
2022-12-31T12:53:25.996Z,3.78
2022-12-31T12:56:44.008Z,2.67
2022-12-31T13:00:07.890Z,2.83
2022-12-31T13:04:14.664Z,4.75
2022-12-31T13:07:27.637Z,2.25
2022-12-31T13:10:45.712Z,2.90
2022-12-31T13:13:59.406Z,2.10
2022-12-31T13:17:30.851Z,4.03
2022-12-31T13:20:42.400Z,2.13
2022-12-31T13:23:53.023Z,2.35
2022-12-31T13:27:03.024Z,2.60
2022-12-31T13:30:21.485Z,3.42
2022-12-31T13:33:29.363Z,6.07
2022-12-31T13:36:38.311Z,2.40
2022-12-31T13:39:45.987Z,5.13
2022-12-31T13:42:57.602Z,1.50
2022-12-31T13:46:18.080Z,2.40
2022-12-31T13:49:28.425Z,1.13
2022-12-31T13:52:39.235Z,1.05
2022-12-31T13:55:52.082Z,2.15
2022-12-31T13:59:06.538Z,3.22
2022-12-31T14:02:32.068Z,2.22
2022-12-31T14:05:45.916Z,2.10
2022-12-31T14:08:51.481Z,3.22
2022-12-31T14:12:20.583Z,1.80
2022-12-31T14:15:31.757Z,1.92
2022-12-31T14:18:48.927Z,3.80
2022-12-31T14:22:02.177Z,1.80
2022-12-31T14:25:20.503Z,2.17
2022-12-31T14:28:32.107Z,4.03
2022-12-31T14:31:52.721Z,1.67
2022-12-31T14:35:10.037Z,1.92
2022-12-31T14:38:24.248Z,2.17
2022-12-31T14:41:45.708Z,1.52
2022-12-31T14:45:05.789Z,2.05
2022-12-31T14:48:26.434Z,1.75
2022-12-31T14:51:34.502Z,2.95
2022-12-31T14:54:40.727Z,2.45
2022-12-31T14:58:26.022Z,1.20
2022-12-31T15:01:26.239Z,2.00
2022-12-31T15:04:35.498Z,1.88
2022-12-31T15:07:53.493Z,2.17
2022-12-31T15:11:24.715Z,5.03
2022-12-31T15:14:53.162Z,3.53
2022-12-31T15:18:11.857Z,2.22
2022-12-31T15:21:50.939Z,5.47
2022-12-31T15:25:00.281Z,2.50
2022-12-31T15:28:08.264Z,2.95
2022-12-31T15:31:20.793Z,6.30
2022-12-31T15:34:33.029Z,3.65
2022-12-31T15:37:39.364Z,5.68
2022-12-31T15:40:50.680Z,4.28
2022-12-31T15:44:00.658Z,9.45
2022-12-31T15:47:13.739Z,7.80
2022-12-31T15:50:21.682Z,8.13
2022-12-31T15:53:32.590Z,6.05
2022-12-31T15:56:48.844Z,10.30
2022-12-31T16:00:02.344Z,9.98
2022-12-31T16:03:07.350Z,14.15
2022-12-31T16:06:15.321Z,10.98
2022-12-31T16:09:25.046Z,11.68
2022-12-31T16:12:44.391Z,10.70
2022-12-31T16:15:55.082Z,8.85
2022-12-31T16:19:00.438Z,8.48
2022-12-31T16:22:11.255Z,7.93
2022-12-31T16:25:31.150Z,9.55
2022-12-31T16:28:40.710Z,8.43
2022-12-31T16:31:46.737Z,11.80
2022-12-31T16:34:51.721Z,10.02
2022-12-31T16:38:14.106Z,10.70
2022-12-31T16:41:20.989Z,10.38
2022-12-31T16:44:33.084Z,18.75
2022-12-31T16:47:40.979Z,16.63
2022-12-31T16:50:47.279Z,16.75
2022-12-31T16:53:53.370Z,12.82
2022-12-31T16:57:00.605Z,12.45
2022-12-31T17:00:10.304Z,19.60
2022-12-31T17:03:21.287Z,17.88
2022-12-31T17:06:28.285Z,17.10
2022-12-31T17:09:39.910Z,14.90
2022-12-31T17:13:25.506Z,17.73
2022-12-31T17:16:20.752Z,15.07
2022-12-31T17:19:41.504Z,17.75
2022-12-31T17:22:47.736Z,17.83
2022-12-31T17:25:59.985Z,12.90
2022-12-31T17:29:08.144Z,15.10
2022-12-31T17:32:32.564Z,16.38
2022-12-31T17:35:42.338Z,17.08
2022-12-31T17:38:47.457Z,18.52
2022-12-31T17:41:55.601Z,20.73
2022-12-31T17:45:03.624Z,21.05
2022-12-31T17:48:15.178Z,24.98
2022-12-31T17:51:24.462Z,17.70
2022-12-31T17:54:29.943Z,22.98
2022-12-31T17:57:36.424Z,29.80
2022-12-31T18:00:43.974Z,39.13
2022-12-31T18:03:52.370Z,35.88
2022-12-31T18:06:57.409Z,22.10
2022-12-31T18:10:02.308Z,21.48
